Time;durP1;ratioP1;P1;durP2;ratioP2;P2;SDS_P1;SDS_P2;PMS_P1;PMS_P2;Temp;Humidity;BMP_temperature;BMP_pressure;BME280_temperature;BME280_humidity;BME280_pressure;Samples;Min_cycle;Max_cycle;Signal;HPM_P1;HPM_P2
2021/01/21 00:00:41;;;;;;;40.70;20.43;;;;;;;-6.47;75.92;99839.88;124617;1143;23528;-68
2021/01/21 00:03:08;;;;;;;51.50;21.97;;;;;;;-6.45;75.61;99845.88;124872;1143;22692;-68
2021/01/21 00:05:37;;;;;;;46.57;19.33;;;;;;;-6.42;76.48;99851.74;124668;1143;22661;-67
2021/01/21 00:08:04;;;;;;;39.60;18.83;;;;;;;-6.42;75.93;99857.05;124874;1143;22739;-67
2021/01/21 00:10:31;;;;;;;44.93;20.83;;;;;;;-6.36;76.53;99850.35;124667;1144;22635;-67
2021/01/21 00:12:59;;;;;;;41.97;20.07;;;;;;;-6.32;76.51;99850.88;124796;1142;22665;-68
2021/01/21 00:15:27;;;;;;;40.50;19.97;;;;;;;-6.30;75.66;99843.63;124682;1143;23061;-68
2021/01/21 00:17:54;;;;;;;38.43;19.83;;;;;;;-6.30;76.23;99844.46;124648;1143;22770;-68
2021/01/21 00:20:21;;;;;;;41.63;19.40;;;;;;;-6.28;75.65;99846.97;124690;1143;22654;-68
2021/01/21 00:22:49;;;;;;;40.67;20.57;;;;;;;-6.24;76.29;99853.67;124606;1142;23960;-67
2021/01/21 00:25:17;;;;;;;45.40;19.40;;;;;;;-6.22;75.57;99852.56;124638;1144;22732;-67
2021/01/21 00:27:45;;;;;;;45.97;21.07;;;;;;;-6.18;75.18;99853.08;124652;1142;22690;-68
2021/01/21 00:30:12;;;;;;;43.87;20.40;;;;;;;-6.16;76.48;99841.36;124833;1144;22741;-68
2021/01/21 00:32:40;;;;;;;41.57;20.53;;;;;;;-6.14;76.20;99847.36;124768;1144;22687;-67
2021/01/21 00:35:10;;;;;;;42.23;20.40;;;;;;;-6.13;76.28;99846.38;124789;1144;23341;-68
2021/01/21 00:37:38;;;;;;;44.63;21.20;;;;;;;-6.11;76.11;99843.59;124726;1144;22715;-67
2021/01/21 00:40:05;;;;;;;37.63;19.67;;;;;;;-6.10;75.42;99840.80;124753;1144;22683;-67
2021/01/21 00:42:33;;;;;;;49.57;22.40;;;;;;;-6.08;76.37;99840.66;124692;1144;22762;-67
2021/01/21 00:45:00;;;;;;;44.57;22.40;;;;;;;-6.07;75.51;99834.37;124803;1144;22695;-68
2021/01/21 00:47:28;;;;;;;39.83;21.10;;;;;;;-6.07;75.92;99835.22;124571;1144;22683;-67
2021/01/21 00:49:55;;;;;;;43.67;19.93;;;;;;;-6.06;75.38;99826.25;124877;1144;22661;-68
2021/01/21 00:52:23;;;;;;;44.30;21.40;;;;;;;-6.05;76.21;99821.78;124604;1144;24132;-68
2021/01/21 00:54:50;;;;;;;49.53;23.63;;;;;;;-6.02;76.23;99818.84;124759;1143;24135;-68
2021/01/21 00:57:18;;;;;;;42.90;19.27;;;;;;;-5.98;76.08;99814.93;124638;1143;22701;-67
2021/01/21 00:59:46;;;;;;;44.85;20.85;;;;;;;-5.97;75.06;99818.42;124757;1142;22652;-68
2021/01/21 01:02:13;;;;;;;41.00;20.50;;;;;;;-5.94;75.75;99818.14;124891;1143;23801;-68
2021/01/21 01:04:41;;;;;;;40.47;19.77;;;;;;;-5.92;75.99;99813.52;124638;1143;22718;-67
2021/01/21 01:07:08;;;;;;;36.93;19.90;;;;;;;-5.91;76.17;99818.66;124721;1142;23563;-67
2021/01/21 01:09:37;;;;;;;52.17;22.17;;;;;;;-5.89;76.13;99821.16;124664;1144;22673;-68
2021/01/21 01:12:05;;;;;;;44.45;21.75;;;;;;;-5.90;75.98;99814.19;124608;1144;22665;-68
2021/01/21 01:14:35;;;;;;;42.17;20.33;;;;;;;-5.91;76.18;99810.70;124576;1142;22799;-67
2021/01/21 01:17:03;;;;;;;52.10;24.17;;;;;;;-5.88;75.32;99817.53;124690;1144;23984;-67
2021/01/21 01:19:33;;;;;;;42.57;21.60;;;;;;;-5.85;75.97;99822.52;124538;1144;22705;-68
2021/01/21 01:22:01;;;;;;;44.90;20.43;;;;;;;-5.84;75.41;99806.46;124499;1144;22855;-67
2021/01/21 01:24:31;;;;;;;44.25;20.50;;;;;;;-5.82;76.29;99806.32;124366;1144;22697;-68
2021/01/21 01:26:58;;;;;;;45.57;21.13;;;;;;;-5.83;76.51;99797.52;124856;1142;22685;-68
2021/01/21 01:29:28;;;;;;;46.70;21.90;;;;;;;-5.83;75.72;99799.34;124415;1142;22713;-68
2021/01/21 01:31:55;;;;;;;46.10;20.03;;;;;;;-5.85;76.18;99798.64;124502;1144;22713;-68
2021/01/21 01:34:27;;;;;;;46.77;20.87;;;;;;;-5.84;76.24;99803.81;124544;1144;22697;-67
2021/01/21 01:37:08;;;;;;;44.07;20.13;;;;;;;-5.84;76.59;99795.02;124468;1144;22653;-68
2021/01/21 01:39:41;;;;;;;45.03;21.57;;;;;;;-5.82;76.36;99796.55;124547;1144;22799;-67
2021/01/21 01:42:13;;;;;;;42.13;20.20;;;;;;;-5.82;75.25;99787.75;124561;1144;22712;-68
2021/01/21 01:44:43;;;;;;;46.67;19.73;;;;;;;-5.78;75.29;99791.78;124510;1144;23483;-68
2021/01/21 01:47:11;;;;;;;37.07;19.67;;;;;;;-5.76;75.99;99801.24;124442;1144;22736;-68
2021/01/21 01:49:39;;;;;;;42.03;20.00;;;;;;;-5.73;76.64;99785.03;124559;1142;22706;-67
2021/01/21 01:52:07;;;;;;;42.17;20.70;;;;;;;-5.70;75.71;99781.25;124822;1142;22672;-68
2021/01/21 01:54:34;;;;;;;48.50;24.07;;;;;;;-5.67;76.36;99782.78;124490;1144;22716;-67
2021/01/21 01:57:18;;;;;;;44.43;21.53;;;;;;;-5.65;76.84;99776.34;124543;1144;22677;-67
2021/01/21 01:59:46;;;;;;;43.80;20.40;;;;;;;-5.62;75.92;99764.58;124513;1142;23525;-68
2021/01/21 02:18:11;;;;;;;38.93;17.53;;;;;;;-5.49;76.64;99755.30;124541;1143;22720;-68
2021/01/21 02:20:51;;;;;;;41.40;19.67;;;;;;;-5.48;75.88;99756.94;124535;1144;22817;-67
2021/01/21 02:23:53;;;;;;;42.80;21.13;;;;;;;-5.47;76.46;99757.77;124641;1142;23560;-68
2021/01/21 02:26:30;;;;;;;42.73;19.83;;;;;;;-5.46;75.40;99747.02;124658;1142;23160;-68
2021/01/21 02:29:07;;;;;;;;;;;;;;;-5.46;76.00;99754.97;124771;1144;22755;-68
2021/01/21 02:32:04;;;;;;;39.80;18.07;;;;;;;-5.45;76.69;99753.99;124657;1142;21473;-68
2021/01/21 02:34:49;;;;;;;33.83;16.43;;;;;;;-5.42;76.78;99748.39;124788;1143;22671;-68
2021/01/21 02:37:24;;;;;;;44.10;19.90;;;;;;;-5.40;75.85;99751.73;124522;1144;22695;-68
2021/01/21 02:40:00;;;;;;;43.80;20.23;;;;;;;-5.39;75.53;99745.44;124734;1143;22788;-68
2021/01/21 02:42:43;;;;;;;37.07;18.37;;;;;;;-5.38;76.42;99738.31;124508;1143;22652;-68
2021/01/21 02:45:14;;;;;;;40.20;19.30;;;;;;;-5.39;77.19;99742.78;124614;1143;22654;-68
2021/01/21 02:47:45;;;;;;;37.53;18.00;;;;;;;-5.37;77.29;99754.09;124625;1144;22697;-68
2021/01/21 02:50:13;;;;;;;36.87;17.80;;;;;;;-5.35;76.58;99759.25;124827;1143;22679;-68
2021/01/21 02:52:56;;;;;;;38.20;17.80;;;;;;;-5.33;76.95;99751.95;124605;1143;23505;-68
2021/01/21 02:55:25;;;;;;;36.83;19.03;;;;;;;-5.30;76.15;99749.00;124667;1142;22899;-68
2021/01/21 02:58:14;;;;;;;38.70;18.30;;;;;;;-5.27;76.90;99745.20;124496;1143;22681;-68
2021/01/21 03:00:41;;;;;;;42.77;18.60;;;;;;;-5.24;75.76;99750.22;124739;1142;23383;-68
2021/01/21 03:03:14;;;;;;;38.17;19.90;;;;;;;-5.23;76.00;99738.62;124450;1143;22704;-68
2021/01/21 03:05:43;;;;;;;36.20;17.97;;;;;;;-5.21;76.62;99736.65;124697;1143;22718;-68
2021/01/21 03:08:13;;;;;;;35.93;18.63;;;;;;;-5.17;75.88;99738.83;124520;1144;22762;-68
2021/01/21 03:10:40;;;;;;;40.07;18.83;;;;;;;-5.16;75.82;99737.01;124712;1143;22664;-68
2021/01/21 03:13:08;;;;;;;33.27;17.37;;;;;;;-5.14;76.59;99745.66;124493;1144;22680;-68
2021/01/21 03:15:43;;;;;;;39.30;18.03;;;;;;;-5.13;76.49;99739.36;123700;1144;22878;-68
2021/01/21 03:18:14;;;;;;;38.00;18.77;;;;;;;-5.10;76.66;99737.25;119993;1144;22942;-67
2021/01/21 03:20:41;;;;;;;34.35;16.80;;;;;;;-5.12;75.93;99747.19;124780;1144;22681;-68
2021/01/21 03:23:12;;;;;;;36.80;19.17;;;;;;;-5.10;76.17;99739.91;124716;1144;22773;-68
2021/01/21 03:25:44;;;;;;;43.50;18.60;;;;;;;-5.08;77.25;99739.75;124593;1144;22673;-68
2021/01/21 03:28:14;;;;;;;36.40;18.53;;;;;;;-5.08;77.02;99740.59;124650;1142;23566;-67
2021/01/21 03:30:41;;;;;;;38.00;17.43;;;;;;;-5.06;76.45;99737.78;124753;1142;22684;-68
2021/01/21 03:33:09;;;;;;;33.63;17.53;;;;;;;-5.06;76.87;99746.59;124729;1144;22684;-68
2021/01/21 03:35:42;;;;;;;37.27;18.30;;;;;;;-5.06;76.76;99745.75;124595;1143;22685;-68
2021/01/21 03:38:10;;;;;;;31.80;17.27;;;;;;;-5.03;77.07;99754.23;124699;1144;23268;-68
2021/01/21 03:40:49;;;;;;;36.97;16.80;;;;;;;-5.00;77.04;99751.27;124620;1143;22659;-68
2021/01/21 03:43:17;;;;;;;40.43;19.47;;;;;;;-4.97;76.70;99743.98;124888;1143;22683;-68
2021/01/21 03:46:02;;;;;;;37.80;18.37;;;;;;;-4.95;77.00;99742.85;124701;1142;22753;-68
2021/01/21 03:48:30;;;;;;;38.80;19.00;;;;;;;-4.94;77.08;99733.89;124824;1144;22729;-68
2021/01/21 03:51:27;;;;;;;37.60;18.27;;;;;;;-4.91;77.83;99738.08;124868;1143;22687;-68
2021/01/21 03:54:05;;;;;;;37.60;18.67;;;;;;;-4.87;77.16;99734.09;124633;1143;22796;-68
2021/01/21 03:56:33;;;;;;;44.87;19.13;;;;;;;-4.86;76.40;99731.29;124761;1143;22716;-68
2021/01/21 03:59:01;;;;;;;40.73;18.30;;;;;;;-4.84;77.82;99729.31;124797;1144;22768;-68
2021/01/21 04:01:31;;;;;;;39.27;18.07;;;;;;;-4.82;77.14;99732.66;124614;1144;22647;-68
2021/01/21 04:03:59;;;;;;;32.93;17.33;;;;;;;-4.80;77.06;99725.38;124683;1143;23875;-68
2021/01/21 04:06:27;;;;;;;33.93;18.20;;;;;;;-4.78;76.38;99722.56;124520;1143;22831;-68
2021/01/21 04:09:00;;;;;;;32.67;16.97;;;;;;;-4.77;77.20;99724.23;124830;1144;22855;-68
2021/01/21 04:11:35;;;;;;;39.20;19.13;;;;;;;-4.75;77.30;99724.88;124566;1144;22671;-68
2021/01/21 04:14:05;;;;;;;38.13;18.27;;;;;;;-4.74;78.11;99722.07;124761;1144;22683;-68
2021/01/21 04:16:33;;;;;;;39.27;18.47;;;;;;;-4.75;76.55;99717.74;124687;1142;23360;-66
2021/01/21 04:19:01;;;;;;;41.33;17.93;;;;;;;-4.74;77.25;99721.23;124671;1143;23462;-66
2021/01/21 04:21:29;;;;;;;37.73;16.90;;;;;;;-4.73;76.62;99722.91;124603;1143;22907;-66
2021/01/21 04:24:00;;;;;;;38.80;17.87;;;;;;;-4.72;77.14;99730.73;124639;1143;22687;-66
2021/01/21 04:26:36;;;;;;;39.00;17.97;;;;;;;-4.73;77.18;99728.22;124608;1143;22680;-66
2021/01/21 04:29:04;;;;;;;38.70;18.17;;;;;;;-4.73;76.78;99734.37;124556;1142;22683;-66
2021/01/21 04:31:32;;;;;;;39.20;19.80;;;;;;;-4.72;78.37;99729.89;124504;1144;22705;-66
2021/01/21 04:34:11;;;;;;;43.77;18.97;;;;;;;-4.69;78.38;99729.59;124861;1144;22688;-66
2021/01/21 04:36:39;;;;;;;40.50;20.03;;;;;;;-4.68;78.51;99726.78;124691;1143;23312;-66
2021/01/21 04:39:07;;;;;;;38.07;19.37;;;;;;;-4.68;77.34;99716.14;124884;1144;22678;-67
2021/01/21 04:41:36;;;;;;;40.53;19.07;;;;;;;-4.68;78.34;99728.60;124465;1144;22671;-66
2021/01/21 04:44:20;;;;;;;39.30;17.50;;;;;;;-4.66;78.68;99731.95;124823;1142;22683;-66
2021/01/21 04:46:52;;;;;;;41.27;19.57;;;;;;;-4.67;77.97;99720.48;124642;1142;22785;-65
2021/01/21 04:49:21;;;;;;;37.55;18.85;;;;;;;-4.65;78.73;99726.47;124584;1144;22695;-66
2021/01/21 04:51:52;;;;;;;38.17;18.77;;;;;;;-4.64;77.30;99730.80;124600;1142;22794;-65
2021/01/21 04:54:37;;;;;;;39.08;17.87;;;;;;;-4.62;78.79;99732.47;124766;1143;23617;-66
2021/01/21 04:57:10;;;;;;;41.87;17.47;;;;;;;-4.60;78.06;99722.49;124541;1144;23287;-66
2021/01/21 04:59:41;;;;;;;46.50;19.33;;;;;;;-4.59;77.71;99727.66;124835;1144;22787;-66
2021/01/21 05:02:15;;;;;;;46.03;19.47;;;;;;;-4.56;77.76;99724.69;124401;1144;22689;-66
2021/01/21 05:04:48;;;;;;;42.47;19.50;;;;;;;-4.55;78.50;99722.87;124802;1143;23369;-66
2021/01/21 05:07:23;;;;;;;42.17;19.57;;;;;;;-4.54;77.62;99722.72;124429;1144;22691;-66
2021/01/21 05:09:50;;;;;;;41.80;20.80;;;;;;;-4.52;77.44;99727.88;124702;1143;22686;-66
2021/01/21 05:12:19;;;;;;;44.00;20.87;;;;;;;-4.51;77.59;99722.41;124417;1144;22681;-64
2021/01/21 05:15:07;;;;;;;;;;;;;;;-4.48;78.35;99729.24;124552;1144;23402;-64
2021/01/21 05:17:55;;;;;;;37.43;17.70;;;;;;;-4.49;78.83;99738.20;124463;1143;21430;-64
2021/01/21 05:20:54;;;;;;;37.97;17.50;;;;;;;-4.45;77.82;99739.54;124529;1143;22727;-66
2021/01/21 05:23:48;;;;;;;38.27;17.90;;;;;;;-4.44;78.92;99738.55;124427;1144;22724;-66
2021/01/21 05:26:35;;;;;;;30.15;14.75;;;;;;;-4.44;78.39;99738.55;124496;1144;23340;-64
2021/01/21 05:29:10;;;;;;;42.13;20.03;;;;;;;-4.42;77.92;99742.73;124379;1144;23552;-64
2021/01/21 05:31:49;;;;;;;39.40;18.70;;;;;;;-4.41;77.55;99735.59;124453;1143;22838;-64
2021/01/21 05:34:17;;;;;;;44.07;20.20;;;;;;;-4.38;78.62;99740.59;124335;1144;22690;-64
2021/01/21 05:37:09;;;;;;;41.63;18.03;;;;;;;-4.38;78.15;99730.80;124627;1144;23753;-65
2021/01/21 05:39:52;;;;;;;43.07;19.57;;;;;;;-4.36;77.51;99739.45;124410;1144;22715;-65
2021/01/21 05:42:52;;;;;;;43.20;20.50;;;;;;;-4.45;78.32;99724.42;124446;1144;23929;-67
2021/01/21 05:45:35;;;;;;;44.03;19.57;;;;;;;-4.32;78.46;99750.59;124697;1144;22678;-67
2021/01/21 05:48:07;;;;;;;41.73;19.17;;;;;;;-4.32;78.13;99742.61;124763;1144;22716;-67
2021/01/21 05:50:35;;;;;;;45.67;20.87;;;;;;;-4.30;77.13;99748.61;124550;1142;23531;-67
2021/01/21 05:53:06;;;;;;;47.67;22.27;;;;;;;-4.31;77.12;99749.59;124756;1143;23727;-66
2021/01/21 05:55:35;;;;;;;53.17;22.43;;;;;;;-4.30;78.21;99752.10;124516;1143;22752;-67
2021/01/21 05:58:04;;;;;;;48.30;21.87;;;;;;;-4.29;77.26;99744.95;124790;1142;22669;-66
2021/01/21 06:00:32;;;;;;;44.90;19.57;;;;;;;-4.26;78.04;99752.62;124323;1144;22745;-67
2021/01/21 06:03:11;;;;;;;46.93;22.37;;;;;;;-4.25;77.20;99745.48;124840;1142;22680;-67
2021/01/21 06:05:51;;;;;;;40.87;20.80;;;;;;;-4.25;78.21;99756.96;124630;1144;22664;-67
2021/01/21 06:08:22;;;;;;;49.50;20.23;;;;;;;-4.25;77.41;99748.98;124665;1144;22857;-67
2021/01/21 06:10:52;;;;;;;45.03;20.63;;;;;;;-4.25;77.48;99743.66;124617;1143;22673;-65
2021/01/21 06:13:19;;;;;;;39.47;19.50;;;;;;;-4.25;78.21;99746.32;124744;1144;22800;-66
2021/01/21 06:15:47;;;;;;;48.10;20.77;;;;;;;-4.23;77.07;99741.68;124393;1143;23916;-69
2021/01/21 06:18:14;;;;;;;41.57;20.67;;;;;;;-4.22;77.10;99745.17;124635;1144;22651;-69
2021/01/21 06:20:54;;;;;;;41.70;19.53;;;;;;;-4.19;78.36;99740.38;124526;1143;23469;-67
2021/01/21 06:23:49;;;;;;;46.20;20.67;;;;;;;-4.18;78.36;99735.90;124526;1142;23473;-67
2021/01/21 06:26:44;;;;;;;46.77;21.67;;;;;;;-4.17;78.41;99733.05;124453;1143;22708;-67
2021/01/21 06:29:18;;;;;;;52.63;24.07;;;;;;;-4.15;77.51;99733.73;124893;1143;22694;-68
2021/01/21 06:31:49;;;;;;;49.47;23.20;;;;;;;-4.13;78.62;99729.09;124550;1144;22799;-68
2021/01/21 06:34:18;;;;;;;57.30;23.00;;;;;;;-4.12;78.41;99736.08;124649;1144;22673;-67
2021/01/21 06:37:09;;;;;;;64.77;25.73;;;;;;;-4.10;78.45;99742.08;124545;1143;23388;-68
2021/01/21 06:39:37;;;;;;;58.20;24.53;;;;;;;-4.05;78.19;99746.94;124738;1143;22779;-68
2021/01/21 06:42:05;;;;;;;80.90;30.33;;;;;;;-4.02;78.49;99750.09;124650;1143;22681;-68
2021/01/21 06:44:33;;;;;;;410.50;128.40;;;;;;;-4.00;77.71;99748.11;124749;1143;22673;-68
2021/01/21 06:47:01;;;;;;;246.83;79.37;;;;;;;-3.98;77.34;99747.95;124482;1144;23897;-68
2021/01/21 06:49:28;;;;;;;103.10;44.80;;;;;;;-3.95;77.99;99745.81;124845;1142;22686;-68
2021/01/21 06:51:55;;;;;;;70.27;31.20;;;;;;;-3.90;77.38;99741.84;124587;1143;22685;-68
2021/01/21 06:54:23;;;;;;;62.20;31.57;;;;;;;-3.89;77.50;99740.86;124589;1144;23525;-68
2021/01/21 06:56:50;;;;;;;71.07;35.00;;;;;;;-3.87;77.90;99737.02;124583;1142;23501;-68
2021/01/21 06:59:50;;;;;;;63.83;31.73;;;;;;;-3.84;78.46;99741.19;124806;1142;22661;-69
2021/01/21 07:02:41;;;;;;;134.70;58.50;;;;;;;-3.83;78.51;99741.03;124694;1143;23296;-68
2021/01/21 07:05:13;;;;;;;114.40;50.93;;;;;;;-3.79;78.49;99746.88;124769;1143;22694;-68
2021/01/21 07:07:52;;;;;;;98.23;42.93;;;;;;;-3.76;77.80;99744.73;124535;1142;23420;-68
2021/01/21 07:10:30;;;;;;;101.05;46.55;;;;;;;-3.70;77.89;99743.23;124669;1142;22694;-67
2021/01/21 07:13:01;;;;;;;72.73;33.27;;;;;;;-3.66;78.50;99744.59;124395;1144;24260;-68
2021/01/21 07:15:37;;;;;;;55.17;26.43;;;;;;;-3.62;77.74;99745.94;124746;1143;22711;-68
2021/01/21 07:18:05;;;;;;;58.20;25.37;;;;;;;-3.70;78.20;99721.94;124441;1144;23296;-68
2021/01/21 07:20:34;;;;;;;50.97;24.33;;;;;;;-3.56;77.78;99735.46;124765;1143;23160;-67
2021/01/21 07:23:03;;;;;;;47.80;23.03;;;;;;;-3.53;77.64;99731.64;124490;1144;22753;-68
2021/01/21 07:25:31;;;;;;;44.60;22.27;;;;;;;-3.59;77.74;99716.30;124739;1144;23671;-68
2021/01/21 07:28:07;;;;;;;48.97;23.37;;;;;;;-3.47;78.42;99724.84;124619;1142;22741;-68
2021/01/21 07:30:53;;;;;;;52.00;25.23;;;;;;;-3.43;77.71;99737.65;124664;1143;22686;-68
2021/01/21 07:33:22;;;;;;;49.17;23.20;;;;;;;-3.40;77.70;99729.34;124379;1144;23575;-68
2021/01/21 07:35:50;;;;;;;44.80;22.17;;;;;;;-3.38;78.37;99722.02;124638;1143;22720;-69
2021/01/21 07:38:45;;;;;;;57.23;24.13;;;;;;;-3.35;78.29;99724.37;124719;1143;23603;-68
2021/01/21 07:41:53;;;;;;;45.33;22.90;;;;;;;-3.32;78.26;99724.02;124675;1144;23376;-68
2021/01/21 07:44:20;;;;;;;46.87;21.57;;;;;;;-3.28;77.64;99713.87;124194;1146;24403;-68
2021/01/21 07:46:48;;;;;;;48.77;22.07;;;;;;;-3.22;77.62;99721.22;124312;1147;22798;-69
2021/01/21 07:49:22;;;;;;;51.73;22.23;;;;;;;-3.19;78.35;99709.41;124241;1147;22694;-69
2021/01/21 07:51:59;;;;;;;47.60;23.30;;;;;;;-3.16;77.60;99717.88;124360;1147;22727;-69
2021/01/21 07:54:30;;;;;;;44.27;21.07;;;;;;;-3.12;77.79;99711.22;124250;1147;22725;-69
2021/01/21 07:56:58;;;;;;;46.30;21.80;;;;;;;-3.07;77.68;99716.06;124390;1146;22720;-68
2021/01/21 07:59:25;;;;;;;52.37;23.77;;;;;;;-3.04;77.50;99715.74;124197;1146;22704;-68
2021/01/21 08:01:59;;;;;;;51.60;23.73;;;;;;;-2.99;78.27;99714.22;124305;1145;22713;-67
2021/01/21 08:04:27;;;;;;;51.77;23.00;;;;;;;-2.94;77.47;99701.24;124240;1145;23411;-67
2021/01/21 08:06:59;;;;;;;47.10;23.65;;;;;;;-2.89;77.77;99695.41;120985;1147;22947;-65
2021/01/21 08:09:26;;;;;;;53.30;22.00;;;;;;;-2.85;78.20;99702.05;124122;1145;25002;-67
2021/01/21 08:11:55;;;;;;;49.87;24.27;;;;;;;-2.80;77.47;99709.56;124340;1147;22685;-65
2021/01/21 08:14:22;;;;;;;49.50;23.60;;;;;;;-2.75;77.38;99704.57;124234;1147;22681;-63
2021/01/21 08:16:52;;;;;;;53.03;25.13;;;;;;;-2.72;77.34;99702.38;124407;1146;22696;-63
2021/01/21 08:19:20;;;;;;;57.93;27.40;;;;;;;-2.67;77.20;99704.55;124573;1144;22768;-65
2021/01/21 08:21:47;;;;;;;50.77;24.60;;;;;;;-2.63;77.59;99711.22;124610;1143;22686;-69
2021/01/21 08:24:14;;;;;;;52.63;26.23;;;;;;;-2.58;77.50;99711.52;124880;1143;22665;-71
2021/01/21 08:26:43;;;;;;;49.17;24.47;;;;;;;-2.55;77.35;99709.36;124608;1143;22673;-64
2021/01/21 08:29:12;;;;;;;46.87;23.13;;;;;;;-2.47;77.29;99715.70;124881;1142;22788;-67
2021/01/21 08:31:43;;;;;;;49.90;24.83;;;;;;;-2.41;77.28;99707.83;124700;1144;22672;-67
2021/01/21 08:34:14;;;;;;;54.07;24.93;;;;;;;-2.33;77.10;99712.33;124787;1143;25193;-67
2021/01/21 08:36:43;;;;;;;52.33;24.17;;;;;;;-2.27;77.06;99698.28;124638;1144;22707;-67
2021/01/21 08:39:11;;;;;;;49.60;23.90;;;;;;;-2.22;76.94;99699.45;124663;1144;22878;-66
2021/01/21 08:41:40;;;;;;;54.03;26.40;;;;;;;-2.16;76.67;99701.41;124495;1143;22708;-66
2021/01/21 08:44:07;;;;;;;50.07;23.17;;;;;;;-2.12;76.69;99696.56;124503;1144;22700;-67
2021/01/21 08:46:35;;;;;;;52.53;24.93;;;;;;;-2.07;76.53;99702.23;124555;1143;25479;-67
2021/01/21 08:49:10;;;;;;;48.57;24.43;;;;;;;-2.00;76.48;99705.03;124698;1142;22663;-67
2021/01/21 08:51:41;;;;;;;52.20;24.90;;;;;;;-1.96;76.54;99698.34;124560;1143;22709;-68
2021/01/21 08:54:09;;;;;;;52.73;24.77;;;;;;;-1.91;76.35;99701.34;124855;1144;22815;-68
2021/01/21 08:56:37;;;;;;;50.17;25.83;;;;;;;-1.86;76.39;99713.14;124665;1143;22679;-68
2021/01/21 08:59:27;;;;;;;46.20;23.50;;;;;;;-1.77;76.28;99707.78;124743;1143;22677;-68
2021/01/21 09:01:55;;;;;;;48.20;24.20;;;;;;;-1.74;76.49;99702.09;124671;1143;22692;-68
2021/01/21 09:04:36;;;;;;;51.53;25.73;;;;;;;-1.71;76.18;99702.56;124793;1144;22703;-69
2021/01/21 09:07:05;;;;;;;62.37;27.63;;;;;;;-1.65;75.84;99704.55;121059;1144;23078;-69
2021/01/21 09:09:40;;;;;;;50.57;24.73;;;;;;;-1.61;75.76;99692.51;124878;1142;22654;-70
2021/01/21 09:13:22;;;;;;;53.20;25.30;;;;;;;-1.53;75.48;99687.11;120154;1147;23068;-69
2021/01/21 09:15:57;;;;;;;201.87;63.67;;;;;;;-1.49;75.78;99693.77;124482;1147;23304;-71
2021/01/21 09:18:44;;;;;;;91.93;37.93;;;;;;;-1.43;75.20;99697.55;124910;1139;23480;-71
2021/01/21 09:21:16;;;;;;;53.83;26.13;;;;;;;-1.36;75.01;99690.51;124762;1143;22796;-68
2021/01/21 09:23:43;;;;;;;54.03;25.87;;;;;;;-1.32;75.15;99689.16;124673;1142;22751;-69
2021/01/21 09:26:14;;;;;;;50.03;24.90;;;;;;;-1.28;75.19;99685.09;124809;1143;22671;-67
2021/01/21 09:28:55;;;;;;;54.57;25.50;;;;;;;-1.24;75.31;99688.25;124636;1142;22749;-67
2021/01/21 09:31:23;;;;;;;51.63;24.37;;;;;;;-1.21;75.12;99685.23;124935;1142;22684;-69
2021/01/21 09:33:51;;;;;;;54.83;26.77;;;;;;;-1.15;74.56;99684.49;124793;1142;22644;-69
2021/01/21 09:36:19;;;;;;;49.70;25.40;;;;;;;-1.12;74.82;99681.47;124989;1142;22700;-66
2021/01/21 09:38:47;;;;;;;58.67;26.17;;;;;;;-1.10;74.67;99671.44;124742;1142;24474;-65
2021/01/21 09:41:14;;;;;;;52.97;25.10;;;;;;;-1.07;74.51;99673.75;124771;1142;22705;-63
2021/01/21 09:43:42;;;;;;;49.23;25.23;;;;;;;-1.05;74.76;99682.44;124715;1142;23431;-71
2021/01/21 09:46:21;;;;;;;60.77;27.03;;;;;;;-1.05;74.58;99666.39;124754;1142;22684;-71
2021/01/21 09:48:48;;;;;;;49.87;26.17;;;;;;;-1.05;73.95;99661.05;124673;1142;23527;-71
2021/01/21 09:51:16;;;;;;;53.03;25.97;;;;;;;-1.01;74.65;99661.52;124777;1142;22726;-70
2021/01/21 09:53:43;;;;;;;47.97;26.63;;;;;;;-0.99;74.81;99671.00;124691;1143;22680;-71
2021/01/21 09:56:11;;;;;;;46.33;24.17;;;;;;;-0.94;74.37;99665.95;124693;1142;22862;-69
2021/01/21 09:58:40;;;;;;;52.53;25.80;;;;;;;-0.89;74.51;99676.13;124680;1142;22666;-71
2021/01/21 10:01:08;;;;;;;47.77;23.90;;;;;;;-0.85;74.18;99666.70;124756;1142;22670;-70
2021/01/21 10:03:49;;;;;;;53.57;26.33;;;;;;;-0.80;74.20;99667.00;124594;1143;23407;-70
2021/01/21 10:06:16;;;;;;;54.37;26.27;;;;;;;-0.77;73.72;99670.15;124905;1142;22702;-70
2021/01/21 10:08:44;;;;;;;51.80;24.07;;;;;;;-0.74;73.99;99658.27;124597;1142;22701;-70
2021/01/21 10:11:11;;;;;;;50.50;25.63;;;;;;;-0.70;74.37;99659.53;124845;1142;22792;-72
2021/01/21 10:13:39;;;;;;;45.73;24.43;;;;;;;-0.65;73.62;99654.48;124981;1142;22758;-71
2021/01/21 10:16:07;;;;;;;49.17;25.03;;;;;;;-0.60;74.13;99649.42;124631;1143;22872;-71
2021/01/21 10:18:35;;;;;;;46.80;24.87;;;;;;;-0.55;73.55;99655.03;124751;1142;22739;-71
2021/01/21 10:21:02;;;;;;;48.13;25.17;;;;;;;-0.51;73.71;99650.16;124703;1142;22729;-72
2021/01/21 10:23:30;;;;;;;51.17;26.20;;;;;;;-0.48;73.95;99652.47;124934;1142;22704;-71
2021/01/21 10:25:57;;;;;;;58.17;25.93;;;;;;;-0.45;73.75;99652.94;124737;1142;23259;-71
2021/01/21 10:28:25;;;;;;;54.60;27.20;;;;;;;-0.43;72.93;99650.88;124951;1143;22948;-71
2021/01/21 10:30:52;;;;;;;48.10;26.93;;;;;;;-0.37;72.86;99649.33;124693;1142;22720;-71
2021/01/21 10:33:19;;;;;;;47.27;25.43;;;;;;;-0.33;73.58;99642.59;124854;1142;23603;-71
2021/01/21 10:35:47;;;;;;;50.83;25.27;;;;;;;-0.30;72.63;99636.05;124829;1142;22644;-71
2021/01/21 10:38:15;;;;;;;52.43;26.73;;;;;;;-0.27;72.45;99630.30;124814;1142;22686;-70
2021/01/21 10:40:42;;;;;;;49.87;25.40;;;;;;;-0.25;73.66;99629.11;124739;1142;23695;-70
2021/01/21 10:43:09;;;;;;;49.73;25.47;;;;;;;-0.20;72.44;99628.55;124741;1142;22683;-70
2021/01/21 10:45:38;;;;;;;49.77;24.30;;;;;;;-0.16;72.68;99622.66;124811;1142;22690;-71
2021/01/21 10:48:06;;;;;;;50.27;27.03;;;;;;;-0.14;73.31;99617.91;124897;1142;22679;-70
2021/01/21 10:50:33;;;;;;;46.93;25.40;;;;;;;-0.08;73.07;99617.18;124609;1142;22658;-71
2021/01/21 10:53:01;;;;;;;53.90;26.07;;;;;;;-0.07;72.95;99620.69;124689;1142;22673;-70
2021/01/21 10:55:29;;;;;;;50.83;27.07;;;;;;;-0.04;71.82;99623.00;124830;1142;24050;-70
2021/01/21 10:57:57;;;;;;;54.90;25.67;;;;;;;-0.03;72.37;99611.27;124827;1142;24054;-70
2021/01/21 11:00:24;;;;;;;55.10;27.37;;;;;;;0.00;71.78;99610.91;124727;1142;22694;-70
2021/01/21 11:02:51;;;;;;;57.63;27.63;;;;;;;0.04;71.96;99608.66;124649;1142;22673;-70
2021/01/21 11:05:19;;;;;;;55.60;27.03;;;;;;;0.06;72.69;99606.63;124681;1143;22652;-71
2021/01/21 11:07:47;;;;;;;47.00;25.03;;;;;;;0.07;72.18;99606.44;124705;1142;22760;-70
2021/01/21 11:10:14;;;;;;;54.13;26.37;;;;;;;0.10;72.68;99603.39;124750;1142;22766;-70
2021/01/21 11:12:48;;;;;;;47.67;25.87;;;;;;;0.12;71.86;99596.00;124621;1142;22813;-71
2021/01/21 11:15:16;;;;;;;56.43;27.57;;;;;;;0.15;72.51;99606.31;124938;1142;22640;-68
2021/01/21 11:17:46;;;;;;;49.80;24.20;;;;;;;0.17;71.70;99592.73;124768;1142;22667;-71
2021/01/21 11:20:14;;;;;;;43.77;23.07;;;;;;;0.16;72.47;99594.58;124832;1142;22703;-71
2021/01/21 11:22:41;;;;;;;45.93;24.87;;;;;;;0.18;72.50;99600.58;124601;1142;22693;-71
2021/01/21 11:25:09;;;;;;;48.90;24.23;;;;;;;0.19;71.76;99596.05;124923;1143;22684;-71
2021/01/21 11:27:57;;;;;;;41.67;24.23;;;;;;;0.21;72.48;99594.02;124808;1143;22755;-71
2021/01/21 11:30:25;;;;;;;48.67;24.43;;;;;;;0.22;71.36;99587.64;124820;1142;22663;-72
2021/01/21 11:32:52;;;;;;;41.93;23.13;;;;;;;0.23;71.71;99587.45;124707;1142;23560;-71
2021/01/21 11:35:19;;;;;;;43.80;24.97;;;;;;;0.24;71.32;99589.12;124816;1143;22769;-71
2021/01/21 11:37:47;;;;;;;48.53;24.77;;;;;;;0.25;71.67;99588.10;124612;1143;22700;-71
2021/01/21 11:40:14;;;;;;;46.80;22.73;;;;;;;0.28;72.21;99592.26;124838;1142;22717;-71
2021/01/21 11:42:42;;;;;;;45.63;24.47;;;;;;;0.28;71.34;99582.37;124613;1142;22704;-72
2021/01/21 11:45:09;;;;;;;52.80;25.67;;;;;;;0.27;72.07;99586.06;124979;1142;22734;-72
2021/01/21 11:47:40;;;;;;;46.97;25.63;;;;;;;0.25;71.96;99585.42;124731;1143;22740;-73